sensor_id;sensor_type;location;lat;lon;timestamp;P1;durP1;ratioP1;P2;durP2;ratioP2
42602;SDS011;28233;55.748;48.752;2022-12-04T00:00:46;0.50;;;0.40;;
42602;SDS011;28233;55.748;48.752;2022-12-04T00:02:49;0.40;;;0.30;;
42602;SDS011;28233;55.748;48.752;2022-12-04T00:04:51;0.40;;;0.40;;
42602;SDS011;28233;55.748;48.752;2022-12-04T00:06:54;0.90;;;0.30;;
42602;SDS011;28233;55.748;48.752;2022-12-04T00:09:00;0.53;;;0.37;;
42602;SDS011;28233;55.748;48.752;2022-12-04T00:11:04;1.77;;;0.60;;
42602;SDS011;28233;55.748;48.752;2022-12-04T00:13:08;2.17;;;0.33;;
42602;SDS011;28233;55.748;48.752;2022-12-04T00:15:10;1.47;;;0.50;;
42602;SDS011;28233;55.748;48.752;2022-12-04T00:17:28;0.83;;;0.40;;
42602;SDS011;28233;55.748;48.752;2022-12-04T00:19:31;2.20;;;0.57;;
42602;SDS011;28233;55.748;48.752;2022-12-04T00:21:34;0.77;;;0.47;;
42602;SDS011;28233;55.748;48.752;2022-12-04T00:23:37;1.77;;;0.60;;
42602;SDS011;28233;55.748;48.752;2022-12-04T00:25:41;0.33;;;0.33;;
42602;SDS011;28233;55.748;48.752;2022-12-04T00:27:43;0.40;;;0.37;;
42602;SDS011;28233;55.748;48.752;2022-12-04T00:29:46;1.27;;;0.60;;
42602;SDS011;28233;55.748;48.752;2022-12-04T00:31:48;2.73;;;0.77;;
42602;SDS011;28233;55.748;48.752;2022-12-04T00:33:51;2.30;;;0.67;;
42602;SDS011;28233;55.748;48.752;2022-12-04T00:35:58;0.90;;;0.40;;
42602;SDS011;28233;55.748;48.752;2022-12-04T00:38:01;0.20;;;0.20;;
42602;SDS011;28233;55.748;48.752;2022-12-04T00:40:04;0.50;;;0.50;;
42602;SDS011;28233;55.748;48.752;2022-12-04T00:42:08;1.20;;;0.47;;
42602;SDS011;28233;55.748;48.752;2022-12-04T00:44:11;0.40;;;0.40;;
42602;SDS011;28233;55.748;48.752;2022-12-04T00:46:14;0.50;;;0.50;;
42602;SDS011;28233;55.748;48.752;2022-12-04T00:48:17;0.73;;;0.50;;
42602;SDS011;28233;55.748;48.752;2022-12-04T00:50:20;1.53;;;0.50;;
42602;SDS011;28233;55.748;48.752;2022-12-04T00:52:23;1.57;;;0.57;;
42602;SDS011;28233;55.748;48.752;2022-12-04T00:54:25;1.03;;;0.70;;
42602;SDS011;28233;55.748;48.752;2022-12-04T00:56:28;1.20;;;0.60;;
42602;SDS011;28233;55.748;48.752;2022-12-04T00:58:31;3.90;;;0.80;;
42602;SDS011;28233;55.748;48.752;2022-12-04T01:00:34;2.20;;;0.70;;
42602;SDS011;28233;55.748;48.752;2022-12-04T01:02:37;0.83;;;0.47;;
42602;SDS011;28233;55.748;48.752;2022-12-04T01:04:40;1.23;;;0.70;;
42602;SDS011;28233;55.748;48.752;2022-12-04T01:06:43;0.87;;;0.50;;
42602;SDS011;28233;55.748;48.752;2022-12-04T01:08:48;2.20;;;0.63;;
42602;SDS011;28233;55.748;48.752;2022-12-04T01:10:51;3.03;;;1.60;;
42602;SDS011;28233;55.748;48.752;2022-12-04T01:12:54;2.03;;;0.63;;
42602;SDS011;28233;55.748;48.752;2022-12-04T01:14:56;0.70;;;0.60;;
42602;SDS011;28233;55.748;48.752;2022-12-04T01:16:59;1.07;;;0.77;;
42602;SDS011;28233;55.748;48.752;2022-12-04T01:19:03;1.43;;;0.60;;
42602;SDS011;28233;55.748;48.752;2022-12-04T01:21:07;1.27;;;0.60;;
42602;SDS011;28233;55.748;48.752;2022-12-04T01:23:10;2.13;;;0.70;;
42602;SDS011;28233;55.748;48.752;2022-12-04T01:25:12;1.57;;;0.90;;
42602;SDS011;28233;55.748;48.752;2022-12-04T01:27:15;1.53;;;0.60;;
42602;SDS011;28233;55.748;48.752;2022-12-04T01:29:17;1.73;;;0.63;;
42602;SDS011;28233;55.748;48.752;2022-12-04T01:31:20;2.67;;;0.73;;
42602;SDS011;28233;55.748;48.752;2022-12-04T01:33:24;2.43;;;0.90;;
42602;SDS011;28233;55.748;48.752;2022-12-04T01:35:26;3.33;;;0.70;;
42602;SDS011;28233;55.748;48.752;2022-12-04T01:37:29;3.00;;;0.80;;
42602;SDS011;28233;55.748;48.752;2022-12-04T01:39:34;1.20;;;0.67;;
42602;SDS011;28233;55.748;48.752;2022-12-04T01:41:37;3.70;;;0.70;;
42602;SDS011;28233;55.748;48.752;2022-12-04T01:43:40;1.73;;;1.03;;
42602;SDS011;28233;55.748;48.752;2022-12-04T01:45:44;1.80;;;1.20;;
42602;SDS011;28233;55.748;48.752;2022-12-04T01:47:48;3.10;;;1.20;;
42602;SDS011;28233;55.748;48.752;2022-12-04T01:49:51;2.33;;;0.90;;
42602;SDS011;28233;55.748;48.752;2022-12-04T01:51:56;1.63;;;1.10;;
42602;SDS011;28233;55.748;48.752;2022-12-04T01:54:08;3.53;;;1.57;;
42602;SDS011;28233;55.748;48.752;2022-12-04T01:56:16;1.60;;;0.60;;
42602;SDS011;28233;55.748;48.752;2022-12-04T01:58:21;1.87;;;0.87;;
42602;SDS011;28233;55.748;48.752;2022-12-04T02:00:30;4.07;;;1.37;;
42602;SDS011;28233;55.748;48.752;2022-12-04T02:02:33;2.60;;;1.53;;
42602;SDS011;28233;55.748;48.752;2022-12-04T02:04:38;2.37;;;1.10;;
42602;SDS011;28233;55.748;48.752;2022-12-04T02:06:41;1.43;;;0.90;;
42602;SDS011;28233;55.748;48.752;2022-12-04T02:08:44;0.97;;;0.57;;
42602;SDS011;28233;55.748;48.752;2022-12-04T02:10:50;2.20;;;0.90;;
42602;SDS011;28233;55.748;48.752;2022-12-04T02:16:10;3.73;;;1.10;;
42602;SDS011;28233;55.748;48.752;2022-12-04T02:23:27;2.03;;;0.87;;
42602;SDS011;28233;55.748;48.752;2022-12-04T02:28:02;2.10;;;0.83;;
42602;SDS011;28233;55.748;48.752;2022-12-04T02:30:14;1.90;;;1.00;;
42602;SDS011;28233;55.748;48.752;2022-12-04T02:32:28;2.80;;;1.43;;
42602;SDS011;28233;55.748;48.752;2022-12-04T02:34:54;1.67;;;0.60;;
42602;SDS011;28233;55.748;48.752;2022-12-04T02:37:05;1.50;;;0.70;;
42602;SDS011;28233;55.748;48.752;2022-12-04T02:39:58;2.00;;;0.80;;
42602;SDS011;28233;55.748;48.752;2022-12-04T02:41:44;1.93;;;0.70;;
42602;SDS011;28233;55.748;48.752;2022-12-04T02:44:18;1.80;;;0.90;;
42602;SDS011;28233;55.748;48.752;2022-12-04T02:46:32;1.47;;;0.80;;
42602;SDS011;28233;55.748;48.752;2022-12-04T02:48:40;1.87;;;1.10;;
42602;SDS011;28233;55.748;48.752;2022-12-04T02:50:46;1.40;;;0.80;;
42602;SDS011;28233;55.748;48.752;2022-12-04T02:52:58;2.70;;;1.03;;
42602;SDS011;28233;55.748;48.752;2022-12-04T02:55:09;3.20;;;1.00;;
42602;SDS011;28233;55.748;48.752;2022-12-04T02:57:21;1.27;;;1.07;;
42602;SDS011;28233;55.748;48.752;2022-12-04T02:59:29;3.20;;;1.07;;
42602;SDS011;28233;55.748;48.752;2022-12-04T03:01:37;2.43;;;1.27;;
42602;SDS011;28233;55.748;48.752;2022-12-04T03:03:43;3.33;;;1.33;;
42602;SDS011;28233;55.748;48.752;2022-12-04T03:05:58;3.33;;;1.43;;
42602;SDS011;28233;55.748;48.752;2022-12-04T03:08:07;3.80;;;1.23;;
42602;SDS011;28233;55.748;48.752;2022-12-04T03:10:16;3.67;;;1.53;;
42602;SDS011;28233;55.748;48.752;2022-12-04T03:12:28;3.47;;;1.60;;
42602;SDS011;28233;55.748;48.752;2022-12-04T03:14:41;3.40;;;1.67;;
42602;SDS011;28233;55.748;48.752;2022-12-04T03:16:49;2.97;;;1.63;;
42602;SDS011;28233;55.748;48.752;2022-12-04T03:19:04;4.70;;;1.90;;
42602;SDS011;28233;55.748;48.752;2022-12-04T03:21:13;3.27;;;1.97;;
42602;SDS011;28233;55.748;48.752;2022-12-04T03:23:22;3.00;;;1.60;;
42602;SDS011;28233;55.748;48.752;2022-12-04T03:25:32;8.43;;;2.20;;
42602;SDS011;28233;55.748;48.752;2022-12-04T03:30:07;4.90;;;2.17;;
42602;SDS011;28233;55.748;48.752;2022-12-04T03:34:27;3.10;;;1.47;;
42602;SDS011;28233;55.748;48.752;2022-12-04T03:36:42;5.37;;;1.83;;
42602;SDS011;28233;55.748;48.752;2022-12-04T03:38:56;2.55;;;1.65;;
42602;SDS011;28233;55.748;48.752;2022-12-04T03:45:58;5.97;;;2.10;;
42602;SDS011;28233;55.748;48.752;2022-12-04T03:48:19;2.47;;;1.13;;
42602;SDS011;28233;55.748;48.752;2022-12-04T03:50:29;5.77;;;2.07;;
42602;SDS011;28233;55.748;48.752;2022-12-04T03:52:51;5.03;;;2.20;;
42602;SDS011;28233;55.748;48.752;2022-12-04T03:55:09;4.28;;;1.95;;
42602;SDS011;28233;55.748;48.752;2022-12-04T03:57:18;3.37;;;2.00;;
42602;SDS011;28233;55.748;48.752;2022-12-04T03:59:26;11.83;;;3.00;;
42602;SDS011;28233;55.748;48.752;2022-12-04T04:01:37;7.37;;;2.50;;
42602;SDS011;28233;55.748;48.752;2022-12-04T04:03:49;3.57;;;1.80;;
42602;SDS011;28233;55.748;48.752;2022-12-04T04:05:56;4.17;;;2.50;;
42602;SDS011;28233;55.748;48.752;2022-12-04T04:08:04;4.17;;;1.83;;
42602;SDS011;28233;55.748;48.752;2022-12-04T04:10:27;7.07;;;2.60;;
42602;SDS011;28233;55.748;48.752;2022-12-04T04:12:31;7.40;;;2.03;;
42602;SDS011;28233;55.748;48.752;2022-12-04T04:14:48;7.43;;;2.60;;
42602;SDS011;28233;55.748;48.752;2022-12-04T04:17:15;4.20;;;2.43;;
42602;SDS011;28233;55.748;48.752;2022-12-04T04:19:40;3.83;;;2.60;;
42602;SDS011;28233;55.748;48.752;2022-12-04T04:22:05;6.53;;;2.70;;
42602;SDS011;28233;55.748;48.752;2022-12-04T04:26:34;4.00;;;2.30;;
42602;SDS011;28233;55.748;48.752;2022-12-04T04:28:43;7.43;;;1.93;;
42602;SDS011;28233;55.748;48.752;2022-12-04T04:30:45;17.70;;;2.70;;
42602;SDS011;28233;55.748;48.752;2022-12-04T04:33:00;5.83;;;2.60;;
42602;SDS011;28233;55.748;48.752;2022-12-04T04:40:24;5.60;;;2.30;;
42602;SDS011;28233;55.748;48.752;2022-12-04T04:42:36;4.17;;;1.63;;
42602;SDS011;28233;55.748;48.752;2022-12-04T04:47:28;6.87;;;1.80;;
42602;SDS011;28233;55.748;48.752;2022-12-04T04:49:37;2.80;;;1.67;;
42602;SDS011;28233;55.748;48.752;2022-12-04T04:51:41;7.90;;;2.67;;
42602;SDS011;28233;55.748;48.752;2022-12-04T04:53:49;3.97;;;1.80;;
42602;SDS011;28233;55.748;48.752;2022-12-04T04:55:55;5.07;;;2.27;;
42602;SDS011;28233;55.748;48.752;2022-12-04T04:58:14;3.50;;;1.67;;
42602;SDS011;28233;55.748;48.752;2022-12-04T05:00:20;8.20;;;2.33;;
42602;SDS011;28233;55.748;48.752;2022-12-04T05:02:24;3.30;;;2.47;;
42602;SDS011;28233;55.748;48.752;2022-12-04T05:04:28;7.97;;;3.63;;
42602;SDS011;28233;55.748;48.752;2022-12-04T05:06:30;5.97;;;2.63;;
42602;SDS011;28233;55.748;48.752;2022-12-04T05:08:33;4.63;;;2.07;;
42602;SDS011;28233;55.748;48.752;2022-12-04T05:10:36;6.77;;;2.70;;
42602;SDS011;28233;55.748;48.752;2022-12-04T05:12:39;6.03;;;3.20;;
42602;SDS011;28233;55.748;48.752;2022-12-04T05:14:42;8.33;;;3.00;;
42602;SDS011;28233;55.748;48.752;2022-12-04T05:16:44;4.93;;;2.40;;
42602;SDS011;28233;55.748;48.752;2022-12-04T05:18:47;8.13;;;3.83;;
42602;SDS011;28233;55.748;48.752;2022-12-04T05:21:09;7.23;;;3.13;;
42602;SDS011;28233;55.748;48.752;2022-12-04T05:23:19;4.70;;;2.38;;
42602;SDS011;28233;55.748;48.752;2022-12-04T05:25:23;7.03;;;2.70;;
42602;SDS011;28233;55.748;48.752;2022-12-04T05:27:26;9.90;;;3.57;;
42602;SDS011;28233;55.748;48.752;2022-12-04T05:29:30;6.33;;;3.50;;
42602;SDS011;28233;55.748;48.752;2022-12-04T05:31:36;6.43;;;2.40;;
42602;SDS011;28233;55.748;48.752;2022-12-04T05:33:39;5.20;;;2.37;;
42602;SDS011;28233;55.748;48.752;2022-12-04T05:35:42;4.00;;;2.73;;
42602;SDS011;28233;55.748;48.752;2022-12-04T05:37:44;9.93;;;4.23;;
42602;SDS011;28233;55.748;48.752;2022-12-04T05:39:47;10.07;;;4.13;;
42602;SDS011;28233;55.748;48.752;2022-12-04T05:41:50;9.97;;;3.23;;
42602;SDS011;28233;55.748;48.752;2022-12-04T05:43:52;7.87;;;3.33;;
42602;SDS011;28233;55.748;48.752;2022-12-04T05:46:02;8.53;;;3.83;;
42602;SDS011;28233;55.748;48.752;2022-12-04T05:48:06;6.60;;;3.10;;
42602;SDS011;28233;55.748;48.752;2022-12-04T05:50:09;5.80;;;3.30;;
42602;SDS011;28233;55.748;48.752;2022-12-04T05:52:14;8.27;;;3.63;;
42602;SDS011;28233;55.748;48.752;2022-12-04T05:54:17;6.10;;;2.57;;
42602;SDS011;28233;55.748;48.752;2022-12-04T05:56:20;7.10;;;3.37;;
42602;SDS011;28233;55.748;48.752;2022-12-04T05:58:23;6.77;;;2.63;;
42602;SDS011;28233;55.748;48.752;2022-12-04T06:00:26;8.43;;;3.17;;
42602;SDS011;28233;55.748;48.752;2022-12-04T06:02:30;7.53;;;3.27;;
42602;SDS011;28233;55.748;48.752;2022-12-04T06:04:35;6.37;;;2.90;;
42602;SDS011;28233;55.748;48.752;2022-12-04T06:06:39;6.13;;;3.87;;
42602;SDS011;28233;55.748;48.752;2022-12-04T06:08:42;5.60;;;2.77;;
42602;SDS011;28233;55.748;48.752;2022-12-04T06:10:44;7.93;;;3.17;;
42602;SDS011;28233;55.748;48.752;2022-12-04T06:12:47;5.20;;;2.50;;
42602;SDS011;28233;55.748;48.752;2022-12-04T06:14:50;4.97;;;2.47;;
42602;SDS011;28233;55.748;48.752;2022-12-04T06:16:52;8.00;;;2.60;;
42602;SDS011;28233;55.748;48.752;2022-12-04T06:18:59;4.67;;;2.40;;
42602;SDS011;28233;55.748;48.752;2022-12-04T06:21:03;7.27;;;2.17;;
42602;SDS011;28233;55.748;48.752;2022-12-04T06:23:06;13.10;;;4.37;;
42602;SDS011;28233;55.748;48.752;2022-12-04T06:25:09;3.60;;;2.03;;
42602;SDS011;28233;55.748;48.752;2022-12-04T06:27:12;7.60;;;2.33;;
42602;SDS011;28233;55.748;48.752;2022-12-04T06:29:30;5.77;;;2.00;;
42602;SDS011;28233;55.748;48.752;2022-12-04T06:31:33;2.87;;;1.23;;
42602;SDS011;28233;55.748;48.752;2022-12-04T06:33:37;7.13;;;2.23;;
42602;SDS011;28233;55.748;48.752;2022-12-04T06:35:41;4.00;;;1.70;;
42602;SDS011;28233;55.748;48.752;2022-12-04T06:37:43;2.70;;;1.67;;
42602;SDS011;28233;55.748;48.752;2022-12-04T06:39:46;4.37;;;1.77;;
42602;SDS011;28233;55.748;48.752;2022-12-04T06:41:49;4.47;;;1.47;;
42602;SDS011;28233;55.748;48.752;2022-12-04T06:43:52;4.73;;;2.30;;
42602;SDS011;28233;55.748;48.752;2022-12-04T06:46:03;7.23;;;2.10;;
42602;SDS011;28233;55.748;48.752;2022-12-04T06:48:07;3.28;;;2.08;;
42602;SDS011;28233;55.748;48.752;2022-12-04T06:50:10;7.53;;;2.00;;
42602;SDS011;28233;55.748;48.752;2022-12-04T06:52:13;6.37;;;1.87;;
42602;SDS011;28233;55.748;48.752;2022-12-04T06:54:17;13.57;;;2.47;;
42602;SDS011;28233;55.748;48.752;2022-12-04T06:56:20;3.40;;;1.90;;
42602;SDS011;28233;55.748;48.752;2022-12-04T06:58:25;3.00;;;1.50;;
42602;SDS011;28233;55.748;48.752;2022-12-04T07:00:28;4.07;;;1.93;;
42602;SDS011;28233;55.748;48.752;2022-12-04T07:02:31;5.73;;;2.13;;
42602;SDS011;28233;55.748;48.752;2022-12-04T07:04:35;2.47;;;1.83;;
42602;SDS011;28233;55.748;48.752;2022-12-04T07:06:39;4.33;;;2.20;;
42602;SDS011;28233;55.748;48.752;2022-12-04T07:08:43;3.37;;;1.40;;
42602;SDS011;28233;55.748;48.752;2022-12-04T07:10:47;3.87;;;2.37;;
42602;SDS011;28233;55.748;48.752;2022-12-04T07:12:56;3.60;;;1.70;;
42602;SDS011;28233;55.748;48.752;2022-12-04T07:14:59;3.30;;;1.60;;
42602;SDS011;28233;55.748;48.752;2022-12-04T07:17:02;2.43;;;1.30;;
42602;SDS011;28233;55.748;48.752;2022-12-04T07:19:05;4.53;;;1.93;;
42602;SDS011;28233;55.748;48.752;2022-12-04T07:21:09;3.70;;;1.90;;
42602;SDS011;28233;55.748;48.752;2022-12-04T07:23:17;3.70;;;1.57;;
42602;SDS011;28233;55.748;48.752;2022-12-04T07:25:20;6.97;;;2.33;;
42602;SDS011;28233;55.748;48.752;2022-12-04T07:27:23;5.27;;;2.07;;
42602;SDS011;28233;55.748;48.752;2022-12-04T07:29:26;5.00;;;2.07;;
42602;SDS011;28233;55.748;48.752;2022-12-04T07:31:29;3.63;;;1.90;;
42602;SDS011;28233;55.748;48.752;2022-12-04T07:33:32;2.33;;;1.73;;
42602;SDS011;28233;55.748;48.752;2022-12-04T07:35:35;6.07;;;2.60;;
42602;SDS011;28233;55.748;48.752;2022-12-04T07:37:38;5.33;;;1.70;;
42602;SDS011;28233;55.748;48.752;2022-12-04T07:39:41;3.10;;;1.70;;
42602;SDS011;28233;55.748;48.752;2022-12-04T07:41:44;5.97;;;1.83;;
42602;SDS011;28233;55.748;48.752;2022-12-04T07:43:47;4.00;;;2.00;;
42602;SDS011;28233;55.748;48.752;2022-12-04T07:45:49;4.67;;;1.90;;
42602;SDS011;28233;55.748;48.752;2022-12-04T07:47:52;6.07;;;2.67;;
42602;SDS011;28233;55.748;48.752;2022-12-04T07:49:55;6.93;;;2.10;;
42602;SDS011;28233;55.748;48.752;2022-12-04T07:51:58;3.27;;;1.97;;
42602;SDS011;28233;55.748;48.752;2022-12-04T07:54:01;5.20;;;2.43;;
42602;SDS011;28233;55.748;48.752;2022-12-04T07:56:06;5.50;;;2.07;;
42602;SDS011;28233;55.748;48.752;2022-12-04T07:58:09;4.77;;;2.03;;
42602;SDS011;28233;55.748;48.752;2022-12-04T08:00:12;5.37;;;2.00;;
42602;SDS011;28233;55.748;48.752;2022-12-04T08:02:15;4.60;;;1.83;;
42602;SDS011;28233;55.748;48.752;2022-12-04T08:04:18;9.73;;;2.20;;
42602;SDS011;28233;55.748;48.752;2022-12-04T08:06:23;9.07;;;2.17;;
42602;SDS011;28233;55.748;48.752;2022-12-04T08:08:28;6.93;;;2.50;;
42602;SDS011;28233;55.748;48.752;2022-12-04T08:10:30;5.53;;;3.17;;
42602;SDS011;28233;55.748;48.752;2022-12-04T08:12:33;6.20;;;2.63;;
42602;SDS011;28233;55.748;48.752;2022-12-04T08:14:36;10.47;;;4.23;;
42602;SDS011;28233;55.748;48.752;2022-12-04T08:16:39;12.20;;;4.70;;
42602;SDS011;28233;55.748;48.752;2022-12-04T08:18:41;4.40;;;2.30;;
42602;SDS011;28233;55.748;48.752;2022-12-04T08:20:48;12.60;;;4.37;;
42602;SDS011;28233;55.748;48.752;2022-12-04T08:22:50;5.13;;;2.70;;
42602;SDS011;28233;55.748;48.752;2022-12-04T08:24:53;9.20;;;3.20;;
42602;SDS011;28233;55.748;48.752;2022-12-04T08:26:56;13.13;;;3.37;;
42602;SDS011;28233;55.748;48.752;2022-12-04T08:28:59;7.93;;;3.17;;
42602;SDS011;28233;55.748;48.752;2022-12-04T08:31:03;5.37;;;2.33;;
42602;SDS011;28233;55.748;48.752;2022-12-04T08:33:13;6.20;;;2.50;;
42602;SDS011;28233;55.748;48.752;2022-12-04T08:35:16;7.07;;;2.73;;
42602;SDS011;28233;55.748;48.752;2022-12-04T08:37:19;4.20;;;2.23;;
42602;SDS011;28233;55.748;48.752;2022-12-04T08:39:22;3.47;;;1.93;;
42602;SDS011;28233;55.748;48.752;2022-12-04T08:41:25;6.70;;;2.93;;
42602;SDS011;28233;55.748;48.752;2022-12-04T08:43:28;8.00;;;3.00;;
42602;SDS011;28233;55.748;48.752;2022-12-04T08:45:31;8.33;;;4.00;;
42602;SDS011;28233;55.748;48.752;2022-12-04T08:47:34;4.33;;;2.43;;
42602;SDS011;28233;55.748;48.752;2022-12-04T08:49:37;6.10;;;2.43;;
42602;SDS011;28233;55.748;48.752;2022-12-04T08:51:39;7.07;;;2.60;;
42602;SDS011;28233;55.748;48.752;2022-12-04T08:53:42;10.10;;;3.93;;
42602;SDS011;28233;55.748;48.752;2022-12-04T08:55:45;16.07;;;4.60;;
42602;SDS011;28233;55.748;48.752;2022-12-04T08:57:49;9.60;;;3.47;;
42602;SDS011;28233;55.748;48.752;2022-12-04T08:59:53;9.93;;;3.90;;
42602;SDS011;28233;55.748;48.752;2022-12-04T09:01:56;10.37;;;4.33;;
42602;SDS011;28233;55.748;48.752;2022-12-04T09:03:59;11.17;;;5.30;;
42602;SDS011;28233;55.748;48.752;2022-12-04T09:06:02;8.47;;;3.67;;
42602;SDS011;28233;55.748;48.752;2022-12-04T09:08:06;15.57;;;5.27;;
42602;SDS011;28233;55.748;48.752;2022-12-04T09:10:09;10.63;;;5.50;;
42602;SDS011;28233;55.748;48.752;2022-12-04T09:12:13;10.67;;;3.73;;
42602;SDS011;28233;55.748;48.752;2022-12-04T09:14:16;16.30;;;5.57;;
42602;SDS011;28233;55.748;48.752;2022-12-04T09:16:21;12.10;;;4.40;;
42602;SDS011;28233;55.748;48.752;2022-12-04T09:18:25;13.27;;;4.47;;
42602;SDS011;28233;55.748;48.752;2022-12-04T09:20:28;10.33;;;3.77;;
42602;SDS011;28233;55.748;48.752;2022-12-04T09:22:32;11.77;;;4.77;;
42602;SDS011;28233;55.748;48.752;2022-12-04T09:24:55;12.80;;;5.13;;
42602;SDS011;28233;55.748;48.752;2022-12-04T09:26:58;14.43;;;6.03;;
42602;SDS011;28233;55.748;48.752;2022-12-04T09:29:02;10.17;;;4.70;;
42602;SDS011;28233;55.748;48.752;2022-12-04T09:31:06;17.63;;;5.23;;
42602;SDS011;28233;55.748;48.752;2022-12-04T09:33:09;14.33;;;4.97;;
42602;SDS011;28233;55.748;48.752;2022-12-04T09:35:12;10.70;;;4.80;;
42602;SDS011;28233;55.748;48.752;2022-12-04T09:37:15;12.40;;;5.03;;
42602;SDS011;28233;55.748;48.752;2022-12-04T09:39:19;10.63;;;5.40;;
42602;SDS011;28233;55.748;48.752;2022-12-04T09:44:07;19.60;;;5.50;;
42602;SDS011;28233;55.748;48.752;2022-12-04T09:46:18;13.57;;;6.23;;
42602;SDS011;28233;55.748;48.752;2022-12-04T09:48:43;12.27;;;5.30;;
42602;SDS011;28233;55.748;48.752;2022-12-04T09:50:49;13.60;;;5.83;;
42602;SDS011;28233;55.748;48.752;2022-12-04T09:53:03;14.13;;;5.33;;
42602;SDS011;28233;55.748;48.752;2022-12-04T09:57:53;21.95;;;7.57;;
42602;SDS011;28233;55.748;48.752;2022-12-04T10:00:04;13.67;;;5.87;;
42602;SDS011;28233;55.748;48.752;2022-12-04T10:04:13;18.50;;;7.90;;
42602;SDS011;28233;55.748;48.752;2022-12-04T10:09:23;24.07;;;8.40;;
42602;SDS011;28233;55.748;48.752;2022-12-04T10:16:49;15.93;;;7.13;;
42602;SDS011;28233;55.748;48.752;2022-12-04T10:21:40;23.63;;;7.30;;
42602;SDS011;28233;55.748;48.752;2022-12-04T10:26:42;22.67;;;8.90;;
42602;SDS011;28233;55.748;48.752;2022-12-04T10:28:47;19.57;;;7.00;;
42602;SDS011;28233;55.748;48.752;2022-12-04T10:30:58;15.67;;;8.13;;
42602;SDS011;28233;55.748;48.752;2022-12-04T10:35:24;14.57;;;7.57;;
42602;SDS011;28233;55.748;48.752;2022-12-04T10:37:30;23.23;;;8.43;;
42602;SDS011;28233;55.748;48.752;2022-12-04T10:40:15;20.10;;;7.33;;
42602;SDS011;28233;55.748;48.752;2022-12-04T10:44:32;22.93;;;7.97;;
42602;SDS011;28233;55.748;48.752;2022-12-04T10:46:35;19.17;;;7.60;;
42602;SDS011;28233;55.748;48.752;2022-12-04T10:48:44;21.93;;;7.63;;
42602;SDS011;28233;55.748;48.752;2022-12-04T10:50:49;12.63;;;7.07;;
42602;SDS011;28233;55.748;48.752;2022-12-04T10:52:52;23.43;;;8.13;;
42602;SDS011;28233;55.748;48.752;2022-12-04T10:54:56;24.30;;;8.87;;
42602;SDS011;28233;55.748;48.752;2022-12-04T10:57:10;22.40;;;7.07;;
42602;SDS011;28233;55.748;48.752;2022-12-04T10:59:14;18.37;;;7.93;;
42602;SDS011;28233;55.748;48.752;2022-12-04T11:01:19;19.50;;;6.93;;
42602;SDS011;28233;55.748;48.752;2022-12-04T11:03:24;23.43;;;8.60;;
42602;SDS011;28233;55.748;48.752;2022-12-04T11:06:12;20.77;;;8.17;;
42602;SDS011;28233;55.748;48.752;2022-12-04T11:07:58;27.43;;;9.23;;
42602;SDS011;28233;55.748;48.752;2022-12-04T11:12:25;21.10;;;10.07;;
42602;SDS011;28233;55.748;48.752;2022-12-04T11:14:28;25.50;;;8.23;;
42602;SDS011;28233;55.748;48.752;2022-12-04T11:16:41;24.00;;;9.80;;
42602;SDS011;28233;55.748;48.752;2022-12-04T11:18:48;20.20;;;9.97;;
42602;SDS011;28233;55.748;48.752;2022-12-04T11:21:34;19.57;;;9.90;;
42602;SDS011;28233;55.748;48.752;2022-12-04T11:23:20;23.40;;;10.27;;
42602;SDS011;28233;55.748;48.752;2022-12-04T11:25:24;26.77;;;9.77;;
42602;SDS011;28233;55.748;48.752;2022-12-04T11:27:30;20.30;;;10.00;;
42602;SDS011;28233;55.748;48.752;2022-12-04T11:29:35;18.33;;;8.33;;
42602;SDS011;28233;55.748;48.752;2022-12-04T11:31:47;15.23;;;7.57;;
42602;SDS011;28233;55.748;48.752;2022-12-04T11:34:13;15.50;;;7.13;;
42602;SDS011;28233;55.748;48.752;2022-12-04T11:36:32;22.80;;;8.23;;
42602;SDS011;28233;55.748;48.752;2022-12-04T11:38:38;16.53;;;8.27;;
42602;SDS011;28233;55.748;48.752;2022-12-04T11:40:47;24.27;;;10.03;;
42602;SDS011;28233;55.748;48.752;2022-12-04T11:42:57;18.70;;;8.33;;
42602;SDS011;28233;55.748;48.752;2022-12-04T11:45:18;21.55;;;8.60;;
42602;SDS011;28233;55.748;48.752;2022-12-04T11:47:25;23.67;;;9.53;;
42602;SDS011;28233;55.748;48.752;2022-12-04T11:49:32;26.87;;;8.43;;
42602;SDS011;28233;55.748;48.752;2022-12-04T11:58:38;27.53;;;11.20;;
42602;SDS011;28233;55.748;48.752;2022-12-04T12:01:39;24.90;;;11.20;;
42602;SDS011;28233;55.748;48.752;2022-12-04T12:03:19;28.70;;;12.10;;
42602;SDS011;28233;55.748;48.752;2022-12-04T12:10:08;32.70;;;12.73;;
42602;SDS011;28233;55.748;48.752;2022-12-04T12:14:57;23.83;;;11.20;;
42602;SDS011;28233;55.748;48.752;2022-12-04T12:34:29;27.40;;;11.97;;
42602;SDS011;28233;55.748;48.752;2022-12-04T12:36:37;25.43;;;11.60;;
42602;SDS011;28233;55.748;48.752;2022-12-04T12:38:50;44.27;;;14.97;;
42602;SDS011;28233;55.748;48.752;2022-12-04T12:41:09;30.03;;;13.87;;
42602;SDS011;28233;55.748;48.752;2022-12-04T12:43:20;32.60;;;12.83;;
42602;SDS011;28233;55.748;48.752;2022-12-04T12:45:47;34.03;;;13.83;;
42602;SDS011;28233;55.748;48.752;2022-12-04T12:47:56;27.53;;;11.43;;
42602;SDS011;28233;55.748;48.752;2022-12-04T12:50:11;32.07;;;12.53;;
42602;SDS011;28233;55.748;48.752;2022-12-04T12:57:03;31.33;;;13.87;;
42602;SDS011;28233;55.748;48.752;2022-12-04T12:59:14;28.13;;;11.33;;
42602;SDS011;28233;55.748;48.752;2022-12-04T13:01:27;23.40;;;11.00;;
42602;SDS011;28233;55.748;48.752;2022-12-04T13:06:18;23.73;;;12.20;;
42602;SDS011;28233;55.748;48.752;2022-12-04T13:08:27;37.03;;;14.25;;
42602;SDS011;28233;55.748;48.752;2022-12-04T13:10:36;31.63;;;11.87;;
42602;SDS011;28233;55.748;48.752;2022-12-04T13:12:46;27.43;;;11.17;;
42602;SDS011;28233;55.748;48.752;2022-12-04T13:21:35;28.60;;;9.57;;
42602;SDS011;28233;55.748;48.752;2022-12-04T13:26:42;28.10;;;9.03;;
42602;SDS011;28233;55.748;48.752;2022-12-04T13:31:45;28.03;;;10.37;;
42602;SDS011;28233;55.748;48.752;2022-12-04T13:34:07;29.67;;;11.43;;
42602;SDS011;28233;55.748;48.752;2022-12-04T13:41:21;28.70;;;11.03;;
42602;SDS011;28233;55.748;48.752;2022-12-04T13:43:33;31.77;;;12.07;;
42602;SDS011;28233;55.748;48.752;2022-12-04T13:45:38;31.00;;;11.10;;
42602;SDS011;28233;55.748;48.752;2022-12-04T13:47:42;28.80;;;12.27;;
42602;SDS011;28233;55.748;48.752;2022-12-04T13:49:44;23.63;;;10.03;;
42602;SDS011;28233;55.748;48.752;2022-12-04T13:51:47;29.23;;;12.53;;
42602;SDS011;28233;55.748;48.752;2022-12-04T13:54:36;27.20;;;11.57;;
42602;SDS011;28233;55.748;48.752;2022-12-04T13:56:26;21.83;;;12.03;;
42602;SDS011;28233;55.748;48.752;2022-12-04T13:58:31;25.00;;;10.67;;
42602;SDS011;28233;55.748;48.752;2022-12-04T14:00:36;23.57;;;11.47;;
42602;SDS011;28233;55.748;48.752;2022-12-04T14:02:48;33.60;;;11.80;;
42602;SDS011;28233;55.748;48.752;2022-12-04T14:05:16;30.88;;;11.20;;
42602;SDS011;28233;55.748;48.752;2022-12-04T14:07:28;19.90;;;8.35;;
42602;SDS011;28233;55.748;48.752;2022-12-04T14:09:38;27.40;;;10.07;;
42602;SDS011;28233;55.748;48.752;2022-12-04T14:11:44;25.17;;;11.50;;
42602;SDS011;28233;55.748;48.752;2022-12-04T14:13:53;27.90;;;11.10;;
42602;SDS011;28233;55.748;48.752;2022-12-04T14:16:03;27.97;;;11.13;;
42602;SDS011;28233;55.748;48.752;2022-12-04T14:18:27;23.63;;;10.37;;
42602;SDS011;28233;55.748;48.752;2022-12-04T14:20:31;21.33;;;9.90;;
42602;SDS011;28233;55.748;48.752;2022-12-04T14:24:38;22.67;;;10.63;;
42602;SDS011;28233;55.748;48.752;2022-12-04T14:26:50;22.37;;;10.73;;